createdAt,value
2022-07-28T00:00:59.544Z,21.50
2022-07-28T00:03:30.485Z,18.95
2022-07-28T00:06:01.441Z,17.57
2022-07-28T00:08:32.275Z,20.88
2022-07-28T00:11:03.252Z,21.82
2022-07-28T00:13:34.632Z,20.62
2022-07-28T00:16:05.678Z,20.08
2022-07-28T00:18:36.684Z,19.62
2022-07-28T00:21:07.634Z,21.17
2022-07-28T00:23:39.986Z,18.12
2022-07-28T00:26:13.666Z,17.73
2022-07-28T00:28:48.323Z,19.12
2022-07-28T00:31:19.408Z,18.23
2022-07-28T00:33:51.432Z,19.42
2022-07-28T00:36:25.621Z,19.40
2022-07-28T00:38:54.979Z,18.07
2022-07-28T00:41:27.627Z,19.32
2022-07-28T00:43:58.648Z,24.90
2022-07-28T00:46:31.043Z,19.30
2022-07-28T00:49:02.312Z,18.82
2022-07-28T00:51:35.994Z,20.92
2022-07-28T00:54:10.861Z,18.80
2022-07-28T00:56:44.470Z,22.87
2022-07-28T00:59:15.352Z,21.42
2022-07-28T01:01:46.398Z,21.52
2022-07-28T01:04:17.839Z,27.60
2022-07-28T01:06:54.252Z,28.57
2022-07-28T01:09:26.083Z,26.75
2022-07-28T01:12:10.880Z,26.10
2022-07-28T01:14:38.431Z,21.37
2022-07-28T01:17:12.478Z,20.45
2022-07-28T01:19:46.669Z,21.57
2022-07-28T01:22:20.023Z,17.35
2022-07-28T01:24:55.916Z,15.58
2022-07-28T01:27:29.197Z,20.40
2022-07-28T01:30:05.340Z,21.52
2022-07-28T01:32:42.229Z,19.48
2022-07-28T01:35:17.162Z,16.17
2022-07-28T01:37:49.963Z,17.70
2022-07-28T01:40:23.252Z,16.80
2022-07-28T01:42:56.591Z,17.20
2022-07-28T01:45:30.002Z,17.23
2022-07-28T01:48:02.663Z,14.85
2022-07-28T01:50:45.831Z,12.70
2022-07-28T01:53:20.562Z,12.98
2022-07-28T01:55:53.647Z,12.95
2022-07-28T01:58:28.277Z,15.40
2022-07-28T02:01:02.894Z,22.20
2022-07-28T02:03:39.057Z,13.03
2022-07-28T02:06:13.404Z,12.80
2022-07-28T02:08:48.058Z,12.75
2022-07-28T02:11:20.490Z,14.55
2022-07-28T02:13:57.352Z,13.70
2022-07-28T02:16:29.737Z,13.90
2022-07-28T02:19:07.743Z,11.88
2022-07-28T02:21:40.806Z,11.43
2022-07-28T02:24:14.190Z,11.90
2022-07-28T02:26:50.496Z,10.53
2022-07-28T02:29:49.320Z,13.78
2022-07-28T02:31:59.903Z,11.45
2022-07-28T02:34:33.148Z,9.58
2022-07-28T02:37:06.104Z,9.95
2022-07-28T02:39:39.383Z,11.20
2022-07-28T02:42:12.705Z,13.43
2022-07-28T02:44:46.410Z,10.55
2022-07-28T02:47:19.625Z,11.90
2022-07-28T02:49:52.676Z,10.85
2022-07-28T02:52:28.033Z,15.08
2022-07-28T02:55:01.197Z,14.03
2022-07-28T02:57:34.522Z,10.93
2022-07-28T03:00:05.517Z,11.78
2022-07-28T03:02:37.985Z,8.85
2022-07-28T03:05:13.042Z,9.23
2022-07-28T03:07:50.974Z,10.75
2022-07-28T03:10:33.334Z,9.43
2022-07-28T03:12:51.940Z,11.10
2022-07-28T03:15:23.283Z,8.83
2022-07-28T03:17:54.645Z,9.18
2022-07-28T03:20:25.584Z,8.23
2022-07-28T03:22:56.702Z,7.97
2022-07-28T03:25:48.784Z,7.95
2022-07-28T03:28:22.435Z,8.15
2022-07-28T03:30:55.685Z,8.93
2022-07-28T03:33:26.900Z,7.78
2022-07-28T03:36:00.423Z,7.80
2022-07-28T03:38:38.721Z,12.15
2022-07-28T03:41:14.449Z,9.20
2022-07-28T03:43:46.674Z,9.40
2022-07-28T03:46:17.810Z,8.50
2022-07-28T03:48:51.440Z,12.75
2022-07-28T03:51:26.706Z,8.75
2022-07-28T03:54:00.208Z,10.13
2022-07-28T03:56:31.040Z,9.00
2022-07-28T03:59:06.027Z,7.60
2022-07-28T04:01:38.312Z,10.30
2022-07-28T04:04:12.417Z,7.80
2022-07-28T04:06:43.381Z,8.13
2022-07-28T04:09:14.339Z,8.28
2022-07-28T04:11:46.700Z,8.03
2022-07-28T04:14:19.243Z,8.80
2022-07-28T04:16:50.509Z,6.85
2022-07-28T04:19:24.546Z,6.80
2022-07-28T04:21:55.522Z,7.92
2022-07-28T04:24:26.324Z,10.88
2022-07-28T04:26:57.369Z,10.80
2022-07-28T04:29:29.259Z,8.65
2022-07-28T04:32:00.367Z,7.35
2022-07-28T04:34:33.096Z,7.58
2022-07-28T04:37:04.100Z,8.43
2022-07-28T04:39:34.805Z,6.78
2022-07-28T04:42:07.353Z,6.83
2022-07-28T04:44:39.451Z,6.87
2022-07-28T04:47:12.489Z,6.97
2022-07-28T04:49:43.690Z,6.92
2022-07-28T04:52:17.356Z,7.95
2022-07-28T04:54:50.756Z,6.83
2022-07-28T04:57:23.022Z,7.05
2022-07-28T04:59:57.374Z,6.90
2022-07-28T05:02:28.338Z,7.47
2022-07-28T05:04:59.241Z,7.45
2022-07-28T05:07:30.129Z,7.95
2022-07-28T05:10:05.692Z,9.05
2022-07-28T05:12:36.675Z,7.45
2022-07-28T05:15:12.030Z,6.40
2022-07-28T05:17:44.724Z,8.33
2022-07-28T05:20:15.968Z,11.85
2022-07-28T05:22:47.653Z,8.88
2022-07-28T05:25:23.053Z,12.65
2022-07-28T05:27:56.764Z,7.28
2022-07-28T05:30:27.700Z,8.45
2022-07-28T05:33:01.196Z,6.67
2022-07-28T05:35:32.545Z,6.42
2022-07-28T05:38:06.366Z,7.00
2022-07-28T05:40:35.968Z,10.50
2022-07-28T05:43:06.887Z,7.42
2022-07-28T05:45:39.249Z,7.65
2022-07-28T05:48:12.004Z,6.60
2022-07-28T05:50:43.004Z,6.80
2022-07-28T05:53:17.301Z,7.95
2022-07-28T05:55:59.842Z,6.47
2022-07-28T05:58:22.769Z,6.97
2022-07-28T06:00:58.757Z,8.53
2022-07-28T06:03:32.385Z,10.55
2022-07-28T06:06:14.743Z,7.20
2022-07-28T06:08:37.493Z,6.45
2022-07-28T06:11:09.735Z,7.33
2022-07-28T06:13:43.685Z,8.00
2022-07-28T06:16:15.981Z,7.60
2022-07-28T06:18:46.999Z,7.75
2022-07-28T06:21:21.251Z,7.05
2022-07-28T06:23:55.024Z,6.85
2022-07-28T06:26:28.622Z,6.15
2022-07-28T06:29:03.420Z,7.75
2022-07-28T06:31:36.311Z,7.78
2022-07-28T06:34:11.330Z,6.62
2022-07-28T06:36:43.130Z,6.17
2022-07-28T06:39:14.058Z,8.58
2022-07-28T06:41:46.231Z,7.80
2022-07-28T06:44:20.448Z,5.35
2022-07-28T06:46:51.379Z,6.97
2022-07-28T06:49:24.118Z,6.90
2022-07-28T06:51:56.219Z,8.00
2022-07-28T06:54:30.617Z,6.17
2022-07-28T06:57:01.560Z,5.92
2022-07-28T06:59:32.533Z,6.78
2022-07-28T07:02:06.104Z,7.60
2022-07-28T07:04:40.898Z,7.45
2022-07-28T07:07:15.057Z,5.60
2022-07-28T07:09:47.807Z,6.25
2022-07-28T07:12:18.721Z,7.03
2022-07-28T07:14:49.841Z,6.95
2022-07-28T07:17:20.527Z,6.53
2022-07-28T07:19:51.334Z,5.85
2022-07-28T07:22:22.461Z,10.38
2022-07-28T07:24:56.930Z,6.45
2022-07-28T07:28:09.079Z,5.90
2022-07-28T07:30:40.402Z,6.77
2022-07-28T07:33:11.308Z,6.20
2022-07-28T07:35:42.052Z,6.90
2022-07-28T07:38:13.159Z,5.40
2022-07-28T07:40:44.103Z,5.40
2022-07-28T07:43:15.043Z,7.40
2022-07-28T07:45:45.960Z,8.40
2022-07-28T07:48:17.130Z,5.65
2022-07-28T07:50:53.425Z,5.78
2022-07-28T07:53:20.737Z,6.15
2022-07-28T07:55:51.675Z,7.00
2022-07-28T07:58:22.693Z,5.20
2022-07-28T08:00:54.540Z,6.17
2022-07-28T08:03:25.922Z,6.17
2022-07-28T08:05:58.147Z,7.55
2022-07-28T08:08:29.637Z,6.80
2022-07-28T08:11:00.526Z,6.25
2022-07-28T08:13:32.488Z,6.33
2022-07-28T08:16:04.670Z,5.28
2022-07-28T08:18:39.693Z,5.20
2022-07-28T08:21:10.419Z,9.13
2022-07-28T08:23:41.528Z,5.58
2022-07-28T08:26:12.307Z,7.35
2022-07-28T08:28:43.256Z,5.53
2022-07-28T08:31:14.371Z,7.25
2022-07-28T08:33:54.311Z,5.50
2022-07-28T08:36:19.335Z,6.08
2022-07-28T08:38:50.636Z,5.17
2022-07-28T08:41:24.260Z,5.20
2022-07-28T08:43:57.398Z,8.80
2022-07-28T08:46:29.107Z,5.33
2022-07-28T08:49:00.350Z,7.08
2022-07-28T08:51:31.728Z,6.15
2022-07-28T08:54:04.391Z,7.28
2022-07-28T08:56:36.218Z,6.70
2022-07-28T08:59:07.482Z,7.45
2022-07-28T09:01:39.933Z,5.00
2022-07-28T09:04:11.844Z,5.22
2022-07-28T09:06:44.922Z,6.25
2022-07-28T09:09:16.077Z,7.30
2022-07-28T09:11:47.179Z,6.53
2022-07-28T09:14:18.207Z,5.45
2022-07-28T09:16:49.164Z,5.17
2022-07-28T09:19:19.921Z,5.35
2022-07-28T09:21:50.935Z,5.85
2022-07-28T09:24:24.348Z,5.10
2022-07-28T09:26:57.626Z,5.85
2022-07-28T09:29:28.770Z,5.15
2022-07-28T09:32:01.361Z,4.72
2022-07-28T09:34:35.087Z,5.28
2022-07-28T09:37:06.244Z,5.42
2022-07-28T09:39:39.416Z,4.65
2022-07-28T09:42:10.151Z,5.62
2022-07-28T09:45:05.852Z,5.83
2022-07-28T09:47:21.992Z,6.53
2022-07-28T09:49:53.410Z,6.53
2022-07-28T09:52:27.007Z,6.28
2022-07-28T09:55:00.404Z,5.87
2022-07-28T09:57:32.674Z,6.45
2022-07-28T10:00:07.898Z,8.55
2022-07-28T10:02:41.096Z,5.45
2022-07-28T10:05:13.164Z,6.92
2022-07-28T10:07:46.390Z,6.45
2022-07-28T10:10:18.643Z,6.05
2022-07-28T10:12:49.675Z,6.05
2022-07-28T10:15:31.124Z,6.33
2022-07-28T10:17:56.349Z,6.85
2022-07-28T10:20:27.412Z,5.62
2022-07-28T10:23:00.681Z,6.25
2022-07-28T10:25:33.985Z,6.58
2022-07-28T10:28:06.471Z,6.55
2022-07-28T10:30:39.887Z,9.20
2022-07-28T10:33:13.332Z,8.45
2022-07-28T10:35:54.628Z,5.67
2022-07-28T10:38:22.596Z,8.48
2022-07-28T10:40:55.072Z,7.35
2022-07-28T10:43:28.493Z,6.17
2022-07-28T10:46:11.776Z,8.30
2022-07-28T10:48:33.873Z,7.62
2022-07-28T10:51:05.890Z,8.20
2022-07-28T10:53:37.853Z,7.08
2022-07-28T10:56:12.693Z,6.28
2022-07-28T10:58:46.813Z,12.25
2022-07-28T11:01:47.121Z,7.15
2022-07-28T11:03:56.604Z,6.00
2022-07-28T11:09:08.581Z,7.65
2022-07-28T11:11:41.803Z,6.08
2022-07-28T11:14:20.349Z,7.53
2022-07-28T11:16:54.967Z,6.50
2022-07-28T11:19:36.529Z,6.60
2022-07-28T11:22:07.635Z,7.75
2022-07-28T11:24:39.690Z,9.53
2022-07-28T11:27:11.988Z,8.43
2022-07-28T11:29:45.187Z,7.95
2022-07-28T11:32:16.337Z,10.58
2022-07-28T11:34:49.823Z,13.65
2022-07-28T11:37:22.195Z,11.38
2022-07-28T11:39:53.036Z,9.93
2022-07-28T11:42:32.126Z,10.35
2022-07-28T11:45:08.119Z,12.73
2022-07-28T11:47:40.389Z,9.23
2022-07-28T11:50:13.711Z,8.93
2022-07-28T11:52:47.082Z,10.05
2022-07-28T11:55:20.100Z,16.73
2022-07-28T11:57:54.001Z,11.80
2022-07-28T12:00:27.106Z,13.38
2022-07-28T12:02:58.844Z,11.30
2022-07-28T12:05:34.382Z,12.23
2022-07-28T12:08:02.054Z,12.13
2022-07-28T12:10:54.129Z,13.85
2022-07-28T12:13:09.864Z,12.70
2022-07-28T12:15:40.902Z,12.40
2022-07-28T12:18:14.369Z,14.87
2022-07-28T12:20:48.767Z,12.93
2022-07-28T12:23:21.070Z,10.98
2022-07-28T12:25:52.405Z,9.38
2022-07-28T12:28:25.734Z,9.45
2022-07-28T12:30:59.244Z,10.88
2022-07-28T12:33:30.171Z,11.22
2022-07-28T12:36:02.546Z,9.73
2022-07-28T12:38:43.280Z,10.40
2022-07-28T12:41:18.035Z,12.70
2022-07-28T12:43:51.421Z,14.25
2022-07-28T12:46:26.626Z,11.53
2022-07-28T12:49:01.839Z,15.03
2022-07-28T12:51:35.305Z,11.67
2022-07-28T12:54:08.280Z,15.50
2022-07-28T12:56:43.024Z,12.98
2022-07-28T12:59:17.501Z,13.40
2022-07-28T13:01:50.257Z,11.45
2022-07-28T13:04:24.956Z,12.88
2022-07-28T13:06:58.941Z,11.70
2022-07-28T13:09:35.142Z,10.20
2022-07-28T13:12:02.901Z,11.90
2022-07-28T13:14:36.696Z,10.35
2022-07-28T13:17:10.692Z,10.23
2022-07-28T13:19:48.111Z,15.08
2022-07-28T13:22:21.519Z,11.53
2022-07-28T13:24:52.435Z,10.63
2022-07-28T13:27:23.425Z,8.33
2022-07-28T13:29:58.982Z,10.98
2022-07-28T13:32:30.052Z,10.10
2022-07-28T13:35:08.025Z,10.28
2022-07-28T13:37:43.786Z,10.15
2022-07-28T13:40:28.023Z,10.43
2022-07-28T13:43:05.017Z,10.08
2022-07-28T13:45:38.771Z,9.85
2022-07-28T13:48:12.123Z,10.70
2022-07-28T13:50:42.920Z,10.60
2022-07-28T13:53:13.748Z,11.85
2022-07-28T13:55:44.921Z,10.82
2022-07-28T13:58:16.364Z,10.72
2022-07-28T14:00:47.479Z,8.78
2022-07-28T14:03:19.669Z,9.13
2022-07-28T14:05:50.685Z,12.40
2022-07-28T14:08:25.056Z,10.35
2022-07-28T14:10:58.885Z,8.75
2022-07-28T14:13:38.041Z,9.30
2022-07-28T14:16:06.874Z,10.28
2022-07-28T14:18:35.099Z,11.55
2022-07-28T14:21:06.933Z,10.08
2022-07-28T14:23:40.494Z,10.95
2022-07-28T14:26:34.598Z,10.72
2022-07-28T14:28:43.424Z,13.13
2022-07-28T14:31:14.360Z,12.73
2022-07-28T14:33:49.517Z,11.60
2022-07-28T14:36:19.964Z,11.03
2022-07-28T14:38:59.458Z,10.45
2022-07-28T14:41:29.349Z,12.07
2022-07-28T14:44:00.300Z,11.78
2022-07-28T14:46:32.493Z,10.75
2022-07-28T14:49:03.731Z,13.75
2022-07-28T14:51:35.412Z,13.68
2022-07-28T14:54:08.255Z,10.98
2022-07-28T14:56:39.539Z,12.43
2022-07-28T14:59:10.707Z,14.00
2022-07-28T15:01:41.689Z,13.25
2022-07-28T15:04:14.581Z,11.68
2022-07-28T15:06:47.965Z,13.58
2022-07-28T15:09:21.022Z,13.35
2022-07-28T15:11:53.704Z,11.35
2022-07-28T15:14:24.051Z,11.70
2022-07-28T15:17:17.016Z,10.25
2022-07-28T15:19:48.035Z,12.37
2022-07-28T15:22:19.436Z,13.00
2022-07-28T15:24:52.873Z,11.48
2022-07-28T15:27:24.838Z,11.73
2022-07-28T15:29:59.882Z,12.98
2022-07-28T15:32:30.854Z,12.47
2022-07-28T15:35:03.082Z,10.35
2022-07-28T15:37:34.347Z,10.82
2022-07-28T15:40:06.701Z,11.03
2022-07-28T15:42:37.547Z,9.25
2022-07-28T15:45:10.451Z,9.55
2022-07-28T15:47:42.496Z,10.30
2022-07-28T15:50:17.824Z,13.03
2022-07-28T15:52:48.901Z,11.75
2022-07-28T15:55:25.681Z,13.83
2022-07-28T15:58:02.357Z,17.60
2022-07-28T16:00:37.630Z,13.35
2022-07-28T16:03:09.290Z,11.45
2022-07-28T16:05:40.471Z,12.33
2022-07-28T16:08:11.418Z,11.85
2022-07-28T16:10:42.237Z,12.90
2022-07-28T16:13:14.937Z,12.25
2022-07-28T16:15:46.758Z,15.23
2022-07-28T16:18:18.022Z,10.30
2022-07-28T16:20:48.870Z,16.15
2022-07-28T16:23:19.695Z,11.38
2022-07-28T16:25:50.583Z,14.53
2022-07-28T16:28:23.030Z,10.38
2022-07-28T16:30:54.024Z,12.82
2022-07-28T16:33:24.913Z,13.80
2022-07-28T16:35:56.130Z,10.58
2022-07-28T16:38:29.036Z,9.95
2022-07-28T16:40:59.652Z,12.40
2022-07-28T16:43:31.010Z,10.82
2022-07-28T16:46:03.338Z,13.70
2022-07-28T16:48:34.197Z,9.93
2022-07-28T16:51:04.955Z,9.95
2022-07-28T16:53:35.998Z,10.23
2022-07-28T16:56:14.114Z,12.47
2022-07-28T16:58:45.554Z,14.38
2022-07-28T17:01:17.455Z,11.55
2022-07-28T17:03:49.501Z,9.20
2022-07-28T17:06:20.414Z,11.57
2022-07-28T17:08:51.810Z,10.13
2022-07-28T17:11:26.175Z,12.00
2022-07-28T17:13:59.984Z,9.68
2022-07-28T17:16:30.864Z,8.78
2022-07-28T17:19:04.112Z,9.70
2022-07-28T17:21:36.293Z,10.08
2022-07-28T17:24:08.038Z,10.55
2022-07-28T17:27:35.085Z,8.85
2022-07-28T17:29:11.601Z,9.20
2022-07-28T17:31:43.988Z,9.38
2022-07-28T17:34:15.262Z,10.65
2022-07-28T17:36:48.728Z,9.48
2022-07-28T17:39:19.624Z,10.63
2022-07-28T17:41:52.716Z,9.33
2022-07-28T17:44:24.052Z,9.90
2022-07-28T17:46:55.592Z,11.93
2022-07-28T17:49:30.108Z,10.08
2022-07-28T17:52:02.602Z,11.97
2022-07-28T17:54:34.874Z,13.22
2022-07-28T17:57:07.158Z,9.90
2022-07-28T17:59:51.197Z,12.18
2022-07-28T18:02:11.126Z,13.53
2022-07-28T18:04:42.214Z,10.85
2022-07-28T18:07:13.152Z,12.00
2022-07-28T18:09:44.106Z,11.65
2022-07-28T18:12:18.447Z,9.63
2022-07-28T18:14:49.202Z,9.25
2022-07-28T18:17:23.062Z,11.08
2022-07-28T18:19:55.144Z,11.35
2022-07-28T18:22:26.063Z,9.88
2022-07-28T18:24:56.951Z,13.58
2022-07-28T18:27:27.938Z,12.40
2022-07-28T18:30:00.118Z,10.80
2022-07-28T18:32:31.351Z,15.10
2022-07-28T18:35:02.297Z,14.05
2022-07-28T18:37:33.005Z,11.57
2022-07-28T18:40:07.357Z,11.73
2022-07-28T18:42:39.007Z,12.25
2022-07-28T18:45:13.625Z,12.65
2022-07-28T18:47:47.362Z,15.10
2022-07-28T18:50:30.595Z,12.88
2022-07-28T18:52:55.761Z,13.15
2022-07-28T18:55:26.905Z,12.82
2022-07-28T18:57:59.277Z,11.95
2022-07-28T19:00:33.306Z,12.05
2022-07-28T19:03:05.589Z,11.95
2022-07-28T19:05:41.727Z,11.83
2022-07-28T19:08:12.303Z,13.70
2022-07-28T19:10:43.191Z,11.93
2022-07-28T19:13:14.337Z,11.63
2022-07-28T19:15:50.530Z,13.40
2022-07-28T19:18:21.739Z,10.25
2022-07-28T19:20:52.781Z,12.58
2022-07-28T19:23:25.256Z,13.25
2022-07-28T19:25:56.100Z,13.40
2022-07-28T19:28:27.154Z,12.63
2022-07-28T19:31:10.673Z,10.65
2022-07-28T19:33:35.461Z,10.43
2022-07-28T19:36:11.944Z,12.10
2022-07-28T19:38:43.479Z,12.07
2022-07-28T19:41:15.020Z,9.88
2022-07-28T19:43:46.139Z,10.75
2022-07-28T19:46:17.277Z,9.98
2022-07-28T19:48:48.628Z,11.50
2022-07-28T19:51:30.265Z,13.22
2022-07-28T19:54:01.537Z,10.48
2022-07-28T19:56:36.035Z,10.68
2022-07-28T19:59:09.588Z,10.82
2022-07-28T20:01:46.536Z,10.35
2022-07-28T20:04:16.861Z,10.65
2022-07-28T20:06:50.837Z,11.05
2022-07-28T20:09:21.404Z,13.62
2022-07-28T20:11:53.397Z,12.53
2022-07-28T20:14:24.672Z,12.10
2022-07-28T20:16:55.514Z,10.80
2022-07-28T20:19:26.474Z,10.53
2022-07-28T20:21:58.534Z,10.03
2022-07-28T20:24:29.688Z,12.30
2022-07-28T20:27:02.052Z,12.85
2022-07-28T20:29:33.092Z,12.43
2022-07-28T20:32:04.015Z,11.25
2022-07-28T20:34:36.272Z,14.58
2022-07-28T20:37:32.678Z,11.90
2022-07-28T20:39:45.510Z,13.28
2022-07-28T20:42:13.529Z,12.30
2022-07-28T20:44:44.313Z,12.70
2022-07-28T20:47:15.158Z,14.70
2022-07-28T20:49:45.929Z,12.63
2022-07-28T20:52:17.009Z,12.43
2022-07-28T20:54:53.623Z,12.78
2022-07-28T20:57:20.191Z,12.25
2022-07-28T20:59:52.758Z,12.88
2022-07-28T21:02:25.571Z,11.60
2022-07-28T21:04:56.585Z,11.88
2022-07-28T21:08:04.968Z,14.85
2022-07-28T21:09:59.716Z,15.43
2022-07-28T21:12:30.627Z,13.20
2022-07-28T21:15:01.582Z,13.62
2022-07-28T21:17:32.613Z,14.75
2022-07-28T21:20:03.793Z,13.72
2022-07-28T21:22:34.805Z,11.43
2022-07-28T21:25:05.957Z,13.83
2022-07-28T21:27:38.176Z,13.65
2022-07-28T21:30:09.719Z,14.03
2022-07-28T21:32:40.518Z,13.40
2022-07-28T21:35:14.309Z,12.80
2022-07-28T21:37:43.910Z,12.93
2022-07-28T21:40:16.417Z,14.68
2022-07-28T21:42:53.234Z,13.38
2022-07-28T21:45:24.305Z,13.38
2022-07-28T21:47:59.662Z,13.88
2022-07-28T21:50:32.685Z,13.78
2022-07-28T21:53:03.500Z,11.73
2022-07-28T21:55:58.172Z,15.93
2022-07-28T21:58:31.668Z,14.73
2022-07-28T22:01:02.973Z,15.95
2022-07-28T22:03:34.097Z,14.35
2022-07-28T22:06:05.624Z,15.72
2022-07-28T22:08:42.400Z,17.27
2022-07-28T22:11:16.324Z,14.55
2022-07-28T22:13:47.242Z,15.53
2022-07-28T22:16:18.279Z,17.82
2022-07-28T22:18:50.603Z,14.38
2022-07-28T22:21:21.475Z,13.62
2022-07-28T22:23:54.168Z,12.35
2022-07-28T22:26:25.584Z,13.88
2022-07-28T22:28:59.423Z,12.33
2022-07-28T22:31:30.629Z,12.98
2022-07-28T22:34:01.624Z,12.50
2022-07-28T22:36:32.755Z,15.15
2022-07-28T22:39:03.797Z,15.08
2022-07-28T22:41:34.649Z,13.18
2022-07-28T22:44:05.757Z,13.45
2022-07-28T22:46:37.394Z,14.60
2022-07-28T22:49:08.347Z,15.60
2022-07-28T22:51:39.518Z,20.68
2022-07-28T22:54:11.804Z,20.97
2022-07-28T22:56:43.149Z,16.48
2022-07-28T22:59:14.560Z,18.62
2022-07-28T23:01:47.423Z,16.87
2022-07-28T23:04:18.565Z,15.28
2022-07-28T23:06:49.760Z,19.32
2022-07-28T23:09:20.522Z,20.23
2022-07-28T23:11:56.073Z,15.65
2022-07-28T23:14:25.062Z,15.72
2022-07-28T23:16:56.178Z,16.02
2022-07-28T23:19:30.169Z,15.60
2022-07-28T23:22:01.128Z,15.00
2022-07-28T23:24:32.066Z,18.10
2022-07-28T23:27:03.109Z,16.60
2022-07-28T23:29:35.711Z,16.00
2022-07-28T23:32:06.361Z,15.35
2022-07-28T23:34:38.255Z,15.15
2022-07-28T23:37:09.846Z,19.27
2022-07-28T23:39:40.883Z,21.02
2022-07-28T23:42:12.024Z,19.55
2022-07-28T23:44:42.724Z,17.12
2022-07-28T23:47:13.533Z,18.20
2022-07-28T23:49:44.551Z,18.60
2022-07-28T23:52:16.085Z,20.43
2022-07-28T23:54:47.125Z,17.20
2022-07-28T23:57:17.982Z,16.82
2022-07-28T23:59:48.726Z,20.50
